createdAt,value
2022-08-25T00:00:06.362Z,0
2022-08-25T00:01:06.371Z,0
2022-08-25T00:02:06.365Z,0
2022-08-25T00:03:06.415Z,0
2022-08-25T00:04:06.365Z,0
2022-08-25T00:05:06.551Z,0
2022-08-25T00:06:06.374Z,0
2022-08-25T00:07:06.372Z,0
2022-08-25T00:08:06.605Z,0
2022-08-25T00:09:06.365Z,0
2022-08-25T00:10:06.374Z,0
2022-08-25T00:11:06.375Z,0
2022-08-25T00:12:06.377Z,0
2022-08-25T00:13:06.376Z,0
2022-08-25T00:14:06.371Z,0
2022-08-25T00:15:06.376Z,0
2022-08-25T00:16:06.436Z,0
2022-08-25T00:17:06.374Z,0
2022-08-25T00:18:11.553Z,0
2022-08-25T00:19:06.380Z,0
2022-08-25T00:20:06.382Z,0
2022-08-25T00:21:06.386Z,0
2022-08-25T00:22:06.375Z,0
2022-08-25T00:23:06.386Z,0
2022-08-25T00:24:06.391Z,0
2022-08-25T00:25:06.386Z,0
2022-08-25T00:26:06.393Z,0
2022-08-25T00:27:06.381Z,0
2022-08-25T00:28:08.437Z,0
2022-08-25T00:29:06.391Z,0
2022-08-25T00:30:06.383Z,0
2022-08-25T00:31:06.446Z,0
2022-08-25T00:32:06.382Z,0
2022-08-25T00:33:06.394Z,0
2022-08-25T00:34:06.388Z,0
2022-08-25T00:35:06.387Z,0
2022-08-25T00:36:06.396Z,0
2022-08-25T00:37:06.386Z,0
2022-08-25T00:38:06.505Z,0
2022-08-25T00:39:06.384Z,0
2022-08-25T00:40:06.457Z,0
2022-08-25T00:41:06.395Z,0
2022-08-25T00:42:06.888Z,0
2022-08-25T00:43:06.397Z,0
2022-08-25T00:44:06.397Z,0
2022-08-25T00:45:06.399Z,0
2022-08-25T00:46:06.422Z,0
2022-08-25T00:47:06.399Z,0
2022-08-25T00:48:06.548Z,0
2022-08-25T00:49:06.394Z,0
2022-08-25T00:50:06.399Z,0
2022-08-25T00:51:06.403Z,0
2022-08-25T00:52:06.399Z,0
2022-08-25T00:53:06.404Z,0
2022-08-25T00:54:06.405Z,0
2022-08-25T00:55:06.435Z,0
2022-08-25T00:56:06.404Z,0
2022-08-25T00:57:06.407Z,0
2022-08-25T00:58:06.466Z,0
2022-08-25T00:59:06.408Z,0
2022-08-25T01:00:06.409Z,0
2022-08-25T01:01:06.430Z,0
2022-08-25T01:02:06.413Z,0
2022-08-25T01:03:06.430Z,0
2022-08-25T01:04:06.403Z,0
2022-08-25T01:05:06.413Z,0
2022-08-25T01:06:06.401Z,0
2022-08-25T01:07:06.395Z,0
2022-08-25T01:08:06.617Z,0
2022-08-25T01:09:06.405Z,0
2022-08-25T01:10:06.400Z,0
2022-08-25T01:11:06.403Z,0
2022-08-25T01:12:06.404Z,0
2022-08-25T01:13:06.402Z,0
2022-08-25T01:14:06.410Z,0
2022-08-25T01:15:06.404Z,0
2022-08-25T01:16:06.425Z,0
2022-08-25T01:17:06.411Z,0
2022-08-25T01:18:06.565Z,0
2022-08-25T01:19:06.403Z,0
2022-08-25T01:20:06.410Z,0
2022-08-25T01:21:06.408Z,0
2022-08-25T01:22:06.405Z,0
2022-08-25T01:23:06.415Z,0
2022-08-25T01:24:06.410Z,0
2022-08-25T01:25:06.407Z,0
2022-08-25T01:26:06.407Z,0
2022-08-25T01:27:06.414Z,0
2022-08-25T01:28:06.591Z,0
2022-08-25T01:29:06.413Z,0
2022-08-25T01:30:06.407Z,0
2022-08-25T01:31:23.633Z,0
2022-08-25T01:32:06.407Z,0
2022-08-25T01:33:06.417Z,0
2022-08-25T01:34:06.409Z,0
2022-08-25T01:35:06.407Z,0
2022-08-25T01:36:06.414Z,0
2022-08-25T01:37:06.402Z,0
2022-08-25T01:38:06.494Z,0
2022-08-25T01:39:06.405Z,0
2022-08-25T01:40:06.456Z,0
2022-08-25T01:41:06.413Z,0
2022-08-25T01:42:06.419Z,0
2022-08-25T01:43:06.416Z,0
2022-08-25T01:44:06.410Z,0
2022-08-25T01:45:06.412Z,0
2022-08-25T01:46:06.459Z,0
2022-08-25T01:47:06.413Z,0
2022-08-25T01:48:06.511Z,0
2022-08-25T01:49:06.937Z,0
2022-08-25T01:50:06.413Z,0
2022-08-25T01:51:06.407Z,0
2022-08-25T01:52:06.413Z,0
2022-08-25T01:53:06.415Z,0
2022-08-25T01:54:06.414Z,0
2022-08-25T01:55:06.420Z,0
2022-08-25T01:56:06.410Z,0
2022-08-25T01:57:06.411Z,0
2022-08-25T01:58:06.498Z,0
2022-08-25T01:59:06.409Z,0
2022-08-25T02:00:06.425Z,0
2022-08-25T02:01:06.464Z,0
2022-08-25T02:02:06.473Z,0
2022-08-25T02:03:06.508Z,0
2022-08-25T02:04:06.409Z,0
2022-08-25T02:05:06.427Z,0
2022-08-25T02:06:06.416Z,0
2022-08-25T02:07:06.424Z,0
2022-08-25T02:08:06.577Z,0
2022-08-25T02:09:06.414Z,0
2022-08-25T02:10:06.409Z,0
2022-08-25T02:11:06.415Z,0
2022-08-25T02:12:06.424Z,0
2022-08-25T02:13:06.415Z,0
2022-08-25T02:14:06.425Z,0
2022-08-25T02:15:06.422Z,0
2022-08-25T02:16:06.416Z,0
2022-08-25T02:17:06.479Z,0
2022-08-25T02:18:06.575Z,0
2022-08-25T02:19:06.418Z,0
2022-08-25T02:20:06.419Z,0
2022-08-25T02:21:06.417Z,0
2022-08-25T02:22:06.413Z,0
2022-08-25T02:23:06.424Z,0
2022-08-25T02:24:06.422Z,0
2022-08-25T02:25:06.422Z,0
2022-08-25T02:26:06.417Z,0
2022-08-25T02:27:06.423Z,0
2022-08-25T02:28:06.537Z,0
2022-08-25T02:29:06.431Z,0
2022-08-25T02:30:06.419Z,0
2022-08-25T02:31:06.470Z,0
2022-08-25T02:32:06.422Z,0
2022-08-25T02:33:06.425Z,0
2022-08-25T02:34:06.430Z,0
2022-08-25T02:35:06.426Z,0
2022-08-25T02:36:06.431Z,0
2022-08-25T02:37:06.439Z,0
2022-08-25T02:38:06.537Z,0
2022-08-25T02:39:06.436Z,0
2022-08-25T02:40:06.517Z,0
2022-08-25T02:41:06.435Z,0
2022-08-25T02:42:06.437Z,0
2022-08-25T02:43:06.441Z,0
2022-08-25T02:44:06.442Z,0
2022-08-25T02:45:06.433Z,0
2022-08-25T02:46:06.477Z,0
2022-08-25T02:47:06.441Z,0
2022-08-25T02:48:06.638Z,0
2022-08-25T02:49:06.451Z,0
2022-08-25T02:50:06.446Z,0
2022-08-25T02:51:06.453Z,0
2022-08-25T02:52:06.453Z,0
2022-08-25T02:53:06.451Z,0
2022-08-25T02:54:06.451Z,0
2022-08-25T02:55:06.450Z,0
2022-08-25T02:56:06.455Z,0
2022-08-25T02:57:06.454Z,0
2022-08-25T02:58:06.632Z,0
2022-08-25T02:59:06.448Z,0
2022-08-25T03:00:06.451Z,0
2022-08-25T03:01:06.509Z,0
2022-08-25T03:02:06.461Z,0
2022-08-25T03:03:06.471Z,0
2022-08-25T03:04:06.455Z,0
2022-08-25T03:05:06.579Z,0
2022-08-25T03:06:06.458Z,0
2022-08-25T03:07:06.455Z,0
2022-08-25T03:08:06.651Z,0
2022-08-25T03:09:06.455Z,0
2022-08-25T03:10:06.465Z,0
2022-08-25T03:11:06.459Z,0
2022-08-25T03:12:06.460Z,0
2022-08-25T03:13:06.466Z,0
2022-08-25T03:14:06.461Z,0
2022-08-25T03:15:09.232Z,0
2022-08-25T03:16:09.850Z,0
2022-08-25T03:17:07.033Z,0
2022-08-25T03:18:06.579Z,0
2022-08-25T03:19:06.474Z,0
2022-08-25T03:20:06.474Z,0
2022-08-25T03:21:06.469Z,0
2022-08-25T03:22:06.471Z,0
2022-08-25T03:23:06.462Z,0
2022-08-25T03:24:06.496Z,0
2022-08-25T03:25:06.475Z,0
2022-08-25T03:26:06.476Z,0
2022-08-25T03:27:06.476Z,0
2022-08-25T03:28:06.674Z,0
2022-08-25T03:29:06.471Z,0
2022-08-25T03:30:06.483Z,0
2022-08-25T03:31:06.476Z,0
2022-08-25T03:32:06.495Z,0
2022-08-25T03:33:06.483Z,0
2022-08-25T03:34:06.478Z,0
2022-08-25T03:35:06.469Z,0
2022-08-25T03:36:06.480Z,0
2022-08-25T03:37:06.477Z,0
2022-08-25T03:38:06.613Z,0
2022-08-25T03:39:06.478Z,0
2022-08-25T03:40:06.528Z,0
2022-08-25T03:41:06.487Z,0
2022-08-25T03:42:06.478Z,0
2022-08-25T03:43:06.476Z,0
2022-08-25T03:44:06.480Z,0
2022-08-25T03:45:06.476Z,0
2022-08-25T03:46:06.547Z,0
2022-08-25T03:47:06.489Z,0
2022-08-25T03:48:06.553Z,0
2022-08-25T03:49:06.481Z,0
2022-08-25T03:50:06.477Z,0
2022-08-25T03:51:06.485Z,0
2022-08-25T03:52:06.489Z,0
2022-08-25T03:53:06.483Z,0
2022-08-25T03:54:06.491Z,0
2022-08-25T03:55:06.490Z,0
2022-08-25T03:56:06.495Z,0
2022-08-25T03:57:06.481Z,0
2022-08-25T03:58:06.616Z,0
2022-08-25T03:59:06.488Z,0
2022-08-25T04:00:06.482Z,0
2022-08-25T04:01:06.542Z,0
2022-08-25T04:02:06.538Z,0
2022-08-25T04:03:06.493Z,0
2022-08-25T04:04:06.493Z,0
2022-08-25T04:05:06.492Z,0
2022-08-25T04:06:06.490Z,0
2022-08-25T04:07:06.495Z,0
2022-08-25T04:08:06.625Z,0
2022-08-25T04:09:06.490Z,0
2022-08-25T04:10:06.492Z,0
2022-08-25T04:11:06.498Z,0
2022-08-25T04:12:06.503Z,0
2022-08-25T04:13:06.492Z,0
2022-08-25T04:14:06.500Z,0
2022-08-25T04:15:06.493Z,0
2022-08-25T04:16:06.541Z,0
2022-08-25T04:17:06.498Z,0
2022-08-25T04:18:06.683Z,0
2022-08-25T04:19:06.498Z,0
2022-08-25T04:20:06.500Z,0
2022-08-25T04:21:06.497Z,0
2022-08-25T04:22:06.493Z,0
2022-08-25T04:23:06.494Z,0
2022-08-25T04:24:06.496Z,0
2022-08-25T04:25:06.496Z,0
2022-08-25T04:26:06.497Z,0
2022-08-25T04:27:06.501Z,0
2022-08-25T04:28:06.669Z,0
2022-08-25T04:29:06.499Z,0
2022-08-25T04:30:06.500Z,0
2022-08-25T04:31:06.498Z,0
2022-08-25T04:32:06.532Z,0
2022-08-25T04:33:06.497Z,0
2022-08-25T04:34:14.843Z,0
2022-08-25T04:35:06.504Z,0
2022-08-25T04:36:10.118Z,0
2022-08-25T04:37:06.503Z,0
2022-08-25T04:38:06.648Z,0
2022-08-25T04:39:06.500Z,0
2022-08-25T04:40:06.565Z,0
2022-08-25T04:41:06.506Z,0
2022-08-25T04:42:06.510Z,0
2022-08-25T04:43:06.497Z,0
2022-08-25T04:44:06.497Z,0
2022-08-25T04:45:06.519Z,0
2022-08-25T04:46:06.574Z,0
2022-08-25T04:47:06.504Z,0
2022-08-25T04:48:06.678Z,0
2022-08-25T04:49:06.504Z,0
2022-08-25T04:50:06.507Z,0
2022-08-25T04:51:06.504Z,0
2022-08-25T04:52:07.023Z,0
2022-08-25T04:53:06.503Z,0
2022-08-25T04:54:06.495Z,0
2022-08-25T04:55:06.505Z,0
2022-08-25T04:56:06.524Z,0
2022-08-25T04:57:06.506Z,0
2022-08-25T04:58:06.676Z,0
2022-08-25T04:59:06.515Z,0
2022-08-25T05:00:06.497Z,0
2022-08-25T05:01:06.539Z,0
2022-08-25T05:02:06.498Z,0
2022-08-25T05:03:06.503Z,0
2022-08-25T05:04:06.532Z,0
2022-08-25T05:05:06.501Z,0
2022-08-25T05:06:06.509Z,0
2022-08-25T05:07:06.516Z,0
2022-08-25T05:08:06.654Z,0
2022-08-25T05:09:06.503Z,0
2022-08-25T05:10:06.506Z,0
2022-08-25T05:11:06.507Z,0
2022-08-25T05:12:06.502Z,0
2022-08-25T05:13:06.519Z,0
2022-08-25T05:14:06.508Z,0
2022-08-25T05:15:06.512Z,0
2022-08-25T05:16:06.549Z,0
2022-08-25T05:17:06.508Z,0
2022-08-25T05:18:06.610Z,0
2022-08-25T05:19:06.505Z,0
2022-08-25T05:20:06.513Z,0
2022-08-25T05:21:06.514Z,0
2022-08-25T05:22:06.516Z,0
2022-08-25T05:23:06.514Z,0
2022-08-25T05:24:06.506Z,0
2022-08-25T05:25:06.507Z,0
2022-08-25T05:26:06.524Z,0
2022-08-25T05:27:06.518Z,0
2022-08-25T05:28:06.678Z,0
2022-08-25T05:29:06.505Z,0
2022-08-25T05:30:06.517Z,0
2022-08-25T05:31:06.604Z,0
2022-08-25T05:32:06.545Z,0
2022-08-25T05:33:06.542Z,0
2022-08-25T05:34:06.513Z,0
2022-08-25T05:35:06.514Z,0
2022-08-25T05:36:06.515Z,0
2022-08-25T05:37:09.242Z,0
2022-08-25T05:38:06.624Z,0
2022-08-25T05:39:06.515Z,0
2022-08-25T05:40:06.575Z,0
2022-08-25T05:41:06.514Z,0
2022-08-25T05:42:06.522Z,0
2022-08-25T05:43:06.522Z,0
2022-08-25T05:44:06.517Z,0
2022-08-25T05:45:06.522Z,0
2022-08-25T05:46:06.583Z,0
2022-08-25T05:47:06.522Z,0
2022-08-25T05:48:06.647Z,0
2022-08-25T05:49:06.524Z,0
2022-08-25T05:50:06.521Z,0
2022-08-25T05:51:06.528Z,0
2022-08-25T05:52:06.530Z,0
2022-08-25T05:53:06.526Z,0
2022-08-25T05:54:06.539Z,0
2022-08-25T05:55:06.525Z,0
2022-08-25T05:56:06.534Z,0
2022-08-25T05:57:06.533Z,0
2022-08-25T05:58:06.668Z,0
2022-08-25T05:59:09.410Z,0
2022-08-25T06:00:06.524Z,0
2022-08-25T06:01:06.590Z,0
2022-08-25T06:02:06.528Z,0
2022-08-25T06:03:06.529Z,0
2022-08-25T06:04:06.601Z,0
2022-08-25T06:05:06.538Z,0
2022-08-25T06:06:06.528Z,0
2022-08-25T06:07:06.538Z,0
2022-08-25T06:08:06.611Z,0
2022-08-25T06:09:06.550Z,0
2022-08-25T06:10:06.542Z,0
2022-08-25T06:11:06.539Z,0
2022-08-25T06:12:06.541Z,0
2022-08-25T06:13:06.650Z,0
2022-08-25T06:14:06.545Z,0
2022-08-25T06:15:06.538Z,0
2022-08-25T06:16:06.596Z,0
2022-08-25T06:17:06.544Z,0
2022-08-25T06:18:06.693Z,0
2022-08-25T06:19:06.549Z,0
2022-08-25T06:20:06.548Z,0
2022-08-25T06:21:06.553Z,0
2022-08-25T06:22:06.557Z,0
2022-08-25T06:23:06.589Z,0
2022-08-25T06:24:06.552Z,0
2022-08-25T06:25:06.550Z,0
2022-08-25T06:26:06.549Z,0
2022-08-25T06:27:06.557Z,0
2022-08-25T06:28:06.676Z,0
2022-08-25T06:29:06.558Z,0
2022-08-25T06:30:07.788Z,0
2022-08-25T06:31:06.611Z,0
2022-08-25T06:32:06.560Z,0
2022-08-25T06:33:06.547Z,0
2022-08-25T06:34:06.564Z,0
2022-08-25T06:35:06.559Z,0
2022-08-25T06:36:06.562Z,0
2022-08-25T06:37:06.558Z,0
2022-08-25T06:38:06.706Z,0
2022-08-25T06:39:06.553Z,0
2022-08-25T06:40:06.596Z,0
2022-08-25T06:41:06.557Z,0
2022-08-25T06:42:06.557Z,0
2022-08-25T06:43:06.564Z,0
2022-08-25T06:44:06.560Z,0
2022-08-25T06:45:06.564Z,0
2022-08-25T06:46:06.565Z,0
2022-08-25T06:47:06.626Z,0
2022-08-25T06:48:06.653Z,0
2022-08-25T06:49:06.564Z,0
2022-08-25T06:50:06.561Z,0
2022-08-25T06:51:06.567Z,0
2022-08-25T06:52:06.578Z,0
2022-08-25T06:53:06.575Z,0
2022-08-25T06:54:06.574Z,0
2022-08-25T06:55:06.573Z,0
2022-08-25T06:56:06.853Z,0
2022-08-25T06:57:06.574Z,0
2022-08-25T06:58:06.641Z,0
2022-08-25T06:59:06.575Z,0
2022-08-25T07:00:06.573Z,0
2022-08-25T07:01:06.662Z,0
2022-08-25T07:02:06.636Z,0
2022-08-25T07:03:07.056Z,0
2022-08-25T07:04:10.235Z,0
2022-08-25T07:05:08.202Z,3
2022-08-25T07:06:06.582Z,1.3
2022-08-25T07:07:06.575Z,0
2022-08-25T07:08:06.680Z,5.2
2022-08-25T07:09:06.583Z,4.9
2022-08-25T07:10:06.584Z,5.1000000000000005
2022-08-25T07:11:06.592Z,3.4000000000000004
2022-08-25T07:12:06.581Z,0
2022-08-25T07:13:06.576Z,0
2022-08-25T07:14:06.585Z,0
2022-08-25T07:15:21.167Z,0
2022-08-25T07:16:06.614Z,0
2022-08-25T07:17:09.031Z,0
2022-08-25T07:18:06.797Z,0
2022-08-25T07:19:06.590Z,0
2022-08-25T07:20:06.614Z,0
2022-08-25T07:21:09.030Z,0
2022-08-25T07:22:06.590Z,0
2022-08-25T07:23:06.694Z,3.9000000000000004
2022-08-25T07:24:06.581Z,0
2022-08-25T07:25:06.588Z,0
2022-08-25T07:26:15.656Z,0
2022-08-25T07:27:06.595Z,0
2022-08-25T07:28:06.590Z,0
2022-08-25T07:29:06.589Z,0
2022-08-25T07:30:06.589Z,0
2022-08-25T07:31:06.633Z,0
2022-08-25T07:32:06.591Z,0
2022-08-25T07:33:07.013Z,0
2022-08-25T07:34:06.588Z,4.2
2022-08-25T07:35:06.591Z,1
2022-08-25T07:36:06.593Z,0
2022-08-25T07:37:06.592Z,2.2
2022-08-25T07:38:06.594Z,8.9
2022-08-25T07:39:06.587Z,6
2022-08-25T07:40:06.645Z,6.1000000000000005
2022-08-25T07:41:06.599Z,3.9000000000000004
2022-08-25T07:43:06.729Z,1.7000000000000002
2022-08-25T07:44:06.598Z,3.7
2022-08-25T07:45:07.201Z,0
2022-08-25T07:46:06.634Z,0
2022-08-25T07:47:06.586Z,3.9000000000000004
2022-08-25T07:48:06.604Z,4.7
2022-08-25T07:49:13.335Z,5.9
2022-08-25T07:50:06.596Z,1.1
2022-08-25T07:51:07.501Z,5.5
2022-08-25T07:52:06.964Z,7.300000000000001
2022-08-25T07:53:06.887Z,0
2022-08-25T07:54:06.598Z,1.4000000000000001
2022-08-25T07:55:06.600Z,3.8000000000000003
2022-08-25T07:56:06.612Z,0
2022-08-25T07:57:06.600Z,0
2022-08-25T07:58:06.743Z,5.6000000000000005
2022-08-25T07:59:06.612Z,1.4000000000000001
2022-08-25T08:00:06.603Z,2.3000000000000003
2022-08-25T08:01:06.611Z,0
2022-08-25T08:02:06.682Z,0
2022-08-25T08:03:06.988Z,0
2022-08-25T08:04:06.648Z,0
2022-08-25T08:05:08.458Z,0
2022-08-25T08:06:06.610Z,4.5
2022-08-25T08:07:06.614Z,1.5
2022-08-25T08:08:06.755Z,0
2022-08-25T08:09:06.623Z,0
2022-08-25T08:10:37.342Z,0
2022-08-25T08:11:06.611Z,0
2022-08-25T08:12:06.605Z,3.3000000000000003
2022-08-25T08:13:07.635Z,2.2
2022-08-25T08:14:06.616Z,0
2022-08-25T08:15:10.076Z,0
2022-08-25T08:16:06.651Z,0
2022-08-25T08:17:06.610Z,0
2022-08-25T08:18:07.283Z,0
2022-08-25T08:19:06.609Z,0
2022-08-25T08:20:06.619Z,0
2022-08-25T08:21:06.617Z,0
2022-08-25T08:22:06.617Z,0.30000000000000004
2022-08-25T08:23:06.787Z,4.7
2022-08-25T08:24:11.085Z,1.8
2022-08-25T08:25:06.622Z,0
2022-08-25T08:26:06.616Z,2.9000000000000004
2022-08-25T08:27:06.621Z,4.6000000000000005
2022-08-25T08:28:06.999Z,0.9
2022-08-25T08:29:06.615Z,2.9000000000000004
2022-08-25T08:30:06.627Z,1.3
2022-08-25T08:31:06.686Z,0
2022-08-25T08:32:06.622Z,0
2022-08-25T08:33:09.966Z,1.7000000000000002
2022-08-25T08:34:06.621Z,1
2022-08-25T08:35:06.618Z,0
2022-08-25T08:36:06.621Z,2.3000000000000003
2022-08-25T08:37:06.615Z,2
2022-08-25T08:38:13.695Z,3.8000000000000003
2022-08-25T08:39:06.625Z,1
2022-08-25T08:40:06.693Z,0.9
2022-08-25T08:41:06.617Z,0
2022-08-25T08:42:11.732Z,0
2022-08-25T08:43:06.752Z,0
2022-08-25T08:44:06.625Z,5.2
2022-08-25T08:45:06.622Z,4
2022-08-25T08:46:06.691Z,0.4
2022-08-25T08:47:07.144Z,0
2022-08-25T08:48:06.830Z,0
2022-08-25T08:49:06.625Z,3.1
2022-08-25T08:50:06.621Z,0
2022-08-25T08:51:06.801Z,0
2022-08-25T08:52:06.627Z,0
2022-08-25T08:53:06.661Z,0
2022-08-25T08:54:06.623Z,0
2022-08-25T08:55:06.646Z,0
2022-08-25T08:56:06.633Z,0
2022-08-25T08:57:06.622Z,0
2022-08-25T08:58:06.812Z,0
2022-08-25T08:59:06.706Z,0
2022-08-25T09:00:06.626Z,0
2022-08-25T09:01:06.628Z,0
2022-08-25T09:02:06.704Z,0
2022-08-25T09:03:06.839Z,0
2022-08-25T09:04:06.632Z,0
2022-08-25T09:05:06.628Z,0
2022-08-25T09:06:06.772Z,0
2022-08-25T09:07:06.626Z,0
2022-08-25T09:08:06.778Z,0
2022-08-25T09:09:06.787Z,0
2022-08-25T09:10:06.635Z,0
2022-08-25T09:11:06.628Z,0
2022-08-25T09:12:06.633Z,0
2022-08-25T09:13:08.783Z,0
2022-08-25T09:14:06.631Z,7.2
2022-08-25T09:15:12.138Z,7.5
2022-08-25T09:16:06.712Z,1.9000000000000001
2022-08-25T09:17:06.635Z,0
2022-08-25T09:18:06.638Z,5.9
2022-08-25T09:19:06.628Z,2.1
2022-08-25T09:20:18.113Z,0
2022-08-25T09:21:07.149Z,0
2022-08-25T09:22:34.123Z,0
2022-08-25T09:23:06.638Z,5.2
2022-08-25T09:24:06.637Z,3.8000000000000003
2022-08-25T09:25:08.611Z,0
2022-08-25T09:26:06.633Z,0
2022-08-25T09:27:06.638Z,0.6000000000000001
2022-08-25T09:28:06.915Z,2.3000000000000003
2022-08-25T09:29:06.645Z,1.5
2022-08-25T09:30:06.645Z,0
2022-08-25T09:31:06.673Z,0
2022-08-25T09:32:06.648Z,0
2022-08-25T09:33:06.649Z,4.9
2022-08-25T09:34:06.642Z,3.1
2022-08-25T09:35:06.650Z,4.5
2022-08-25T09:36:08.900Z,0
2022-08-25T09:37:06.645Z,2.2
2022-08-25T09:38:06.789Z,4.3
2022-08-25T09:39:06.708Z,3
2022-08-25T09:40:06.707Z,2.8000000000000003
2022-08-25T09:41:06.644Z,1.5
2022-08-25T09:42:06.657Z,0
2022-08-25T09:43:06.647Z,7
2022-08-25T09:44:06.648Z,7
2022-08-25T09:45:06.653Z,3.5
2022-08-25T09:46:06.681Z,2.3000000000000003
2022-08-25T09:47:07.120Z,0
2022-08-25T09:48:06.885Z,0.8
2022-08-25T09:49:06.672Z,0
2022-08-25T09:50:06.657Z,0
2022-08-25T09:51:06.662Z,4.7
2022-08-25T09:52:06.655Z,1.4000000000000001
2022-08-25T09:53:14.763Z,3.3000000000000003
2022-08-25T09:54:10.400Z,3
2022-08-25T09:55:06.651Z,2.1
2022-08-25T09:56:06.659Z,0
2022-08-25T09:57:08.643Z,3.3000000000000003
2022-08-25T09:58:06.869Z,1.6
2022-08-25T09:59:06.656Z,0
2022-08-25T10:00:06.662Z,2
2022-08-25T10:01:06.700Z,3.4000000000000004
2022-08-25T10:02:06.660Z,0
2022-08-25T10:03:06.921Z,0
2022-08-25T10:04:06.771Z,0
2022-08-25T10:05:06.720Z,0
2022-08-25T10:06:06.656Z,0
2022-08-25T10:07:06.661Z,0
2022-08-25T10:08:06.663Z,0
2022-08-25T10:09:06.774Z,3.9000000000000004
2022-08-25T10:10:06.664Z,0
2022-08-25T10:11:08.784Z,0
2022-08-25T10:12:06.668Z,0
2022-08-25T10:13:06.882Z,0
2022-08-25T10:14:06.659Z,0
2022-08-25T10:15:06.655Z,0
2022-08-25T10:16:13.727Z,0
2022-08-25T10:17:06.665Z,0
2022-08-25T10:18:06.660Z,0
2022-08-25T10:19:06.667Z,5
2022-08-25T10:20:06.666Z,4.7
2022-08-25T10:21:07.710Z,3.8000000000000003
2022-08-25T10:22:06.667Z,5.6000000000000005
2022-08-25T10:23:06.827Z,4.1000000000000005
2022-08-25T10:24:06.662Z,3.3000000000000003
2022-08-25T10:25:06.659Z,2
2022-08-25T10:26:06.665Z,0
2022-08-25T10:27:06.661Z,0
2022-08-25T10:28:06.822Z,0
2022-08-25T10:29:06.660Z,0
2022-08-25T10:30:06.664Z,0
2022-08-25T10:31:06.704Z,0
2022-08-25T10:32:10.287Z,0
2022-08-25T10:33:06.809Z,0
2022-08-25T10:34:06.669Z,0
2022-08-25T10:35:06.663Z,0
2022-08-25T10:36:06.659Z,0
2022-08-25T10:37:09.172Z,0
2022-08-25T10:38:06.669Z,4
2022-08-25T10:39:06.664Z,4.2
2022-08-25T10:40:06.692Z,3.4000000000000004
2022-08-25T10:41:06.667Z,4.1000000000000005
2022-08-25T10:42:06.670Z,6.6000000000000005
2022-08-25T10:43:06.771Z,4.4
2022-08-25T10:44:06.671Z,0
2022-08-25T10:45:06.666Z,0
2022-08-25T10:46:06.725Z,0
2022-08-25T10:47:06.676Z,3.9000000000000004
2022-08-25T10:48:06.672Z,0
2022-08-25T10:49:06.673Z,0
2022-08-25T10:50:06.674Z,0
2022-08-25T10:51:06.672Z,1.3
2022-08-25T10:52:06.668Z,4.800000000000001
2022-08-25T10:53:06.855Z,4.5
2022-08-25T10:54:06.673Z,1.6
2022-08-25T10:55:06.671Z,1.3
2022-08-25T10:56:07.075Z,2.7
2022-08-25T10:57:07.148Z,3.6
2022-08-25T10:58:06.674Z,2.4000000000000004
2022-08-25T10:59:06.673Z,3.9000000000000004
2022-08-25T11:00:06.679Z,2.9000000000000004
2022-08-25T11:01:06.708Z,1.5
2022-08-25T11:02:06.750Z,3.1
2022-08-25T11:03:06.879Z,6.2
2022-08-25T11:04:06.703Z,3.6
2022-08-25T11:05:06.862Z,0.9
2022-08-25T11:06:06.672Z,0
2022-08-25T11:07:06.680Z,0
2022-08-25T11:08:06.697Z,3.3000000000000003
2022-08-25T11:09:06.678Z,4.5
2022-08-25T11:10:06.673Z,1.2000000000000002
2022-08-25T11:11:06.682Z,0
2022-08-25T11:12:06.680Z,2.3000000000000003
2022-08-25T11:13:06.899Z,5.2
2022-08-25T11:14:09.443Z,0.9
2022-08-25T11:15:06.677Z,4.7
2022-08-25T11:16:16.916Z,3.9000000000000004
2022-08-25T11:17:06.776Z,3.1
2022-08-25T11:18:10.272Z,0
2022-08-25T11:19:06.678Z,3.5
2022-08-25T11:20:06.674Z,0
2022-08-25T11:21:06.684Z,0
2022-08-25T11:22:06.681Z,4.6000000000000005
2022-08-25T11:23:06.928Z,4.800000000000001
2022-08-25T11:24:06.687Z,1.9000000000000001
2022-08-25T11:25:06.690Z,0
2022-08-25T11:26:06.675Z,0
2022-08-25T11:27:06.673Z,0
2022-08-25T11:28:06.915Z,0
2022-08-25T11:29:07.750Z,0
2022-08-25T11:30:07.043Z,0
2022-08-25T11:31:06.790Z,6.1000000000000005
2022-08-25T11:32:06.684Z,2.3000000000000003
2022-08-25T11:33:06.703Z,2.8000000000000003
2022-08-25T11:34:06.680Z,3
2022-08-25T11:35:06.687Z,3.1
2022-08-25T11:36:06.847Z,3.3000000000000003
2022-08-25T11:37:06.689Z,5.6000000000000005
2022-08-25T11:38:06.942Z,1
2022-08-25T11:39:06.692Z,4.5
2022-08-25T11:40:06.750Z,6.6000000000000005
2022-08-25T11:41:11.172Z,5.800000000000001
2022-08-25T11:42:06.684Z,1.6
2022-08-25T11:43:08.134Z,3.8000000000000003
2022-08-25T11:44:06.685Z,0.4
2022-08-25T11:45:06.696Z,0
2022-08-25T11:46:06.737Z,0
2022-08-25T11:47:06.681Z,5.5
2022-08-25T11:48:06.926Z,4.3
2022-08-25T11:49:06.703Z,2.1
2022-08-25T11:50:06.685Z,5
2022-08-25T11:51:06.697Z,3.7
2022-08-25T11:52:06.685Z,3.7
2022-08-25T11:53:06.688Z,2
2022-08-25T11:54:06.684Z,3.6
2022-08-25T11:55:06.692Z,0.7000000000000001
2022-08-25T11:56:06.690Z,5.800000000000001
2022-08-25T11:57:06.688Z,0.5
2022-08-25T11:58:06.929Z,5.800000000000001
2022-08-25T11:59:06.693Z,4.5
2022-08-25T12:00:06.681Z,6.2
2022-08-25T12:01:06.698Z,2.5
2022-08-25T12:02:06.691Z,2.3000000000000003
2022-08-25T12:03:06.693Z,5.300000000000001
2022-08-25T12:04:06.732Z,6
2022-08-25T12:05:06.808Z,3
2022-08-25T12:06:06.685Z,6.800000000000001
2022-08-25T12:07:06.850Z,1.2000000000000002
2022-08-25T12:08:06.911Z,0
2022-08-25T12:09:06.688Z,0
2022-08-25T12:10:06.683Z,6.5
2022-08-25T12:11:10.820Z,4
2022-08-25T12:12:06.684Z,13.9
2022-08-25T12:13:08.105Z,7
2022-08-25T12:14:06.695Z,6.4
2022-08-25T12:15:06.680Z,0
2022-08-25T12:16:06.695Z,4.7
2022-08-25T12:17:06.691Z,6.9
2022-08-25T12:18:08.598Z,5.9
2022-08-25T12:19:06.691Z,4.4
2022-08-25T12:20:06.748Z,9.200000000000001
2022-08-25T12:21:06.689Z,5.2
2022-08-25T12:22:06.692Z,0.8
2022-08-25T12:23:06.694Z,6.7
2022-08-25T12:24:06.691Z,6.800000000000001
2022-08-25T12:25:06.697Z,7.6000000000000005
2022-08-25T12:26:06.698Z,6
2022-08-25T12:27:06.753Z,6.7
2022-08-25T12:28:09.124Z,5
2022-08-25T12:29:07.434Z,2.8000000000000003
2022-08-25T12:30:06.710Z,2.2
2022-08-25T12:31:06.770Z,0.9
2022-08-25T12:32:06.706Z,3.1
2022-08-25T12:33:06.710Z,6.300000000000001
2022-08-25T12:34:06.703Z,2.8000000000000003
2022-08-25T12:35:06.709Z,5.2
2022-08-25T12:36:06.709Z,5
2022-08-25T12:37:06.708Z,6.2
2022-08-25T12:38:06.946Z,4.800000000000001
2022-08-25T12:39:06.713Z,2.9000000000000004
2022-08-25T12:40:06.792Z,1.9000000000000001
2022-08-25T12:41:06.710Z,3.7
2022-08-25T12:42:06.754Z,2.2
2022-08-25T12:43:06.976Z,6
2022-08-25T12:44:06.712Z,3.7
2022-08-25T12:45:06.717Z,4.6000000000000005
2022-08-25T12:46:06.748Z,4.5
2022-08-25T12:47:06.714Z,7.6000000000000005
2022-08-25T12:48:06.715Z,2.6
2022-08-25T12:49:06.720Z,5.7
2022-08-25T12:50:06.713Z,8.1
2022-08-25T12:51:06.726Z,4.5
2022-08-25T12:52:06.721Z,5.4
2022-08-25T12:53:06.863Z,4.7
2022-08-25T12:54:10.377Z,5.9
2022-08-25T12:55:06.732Z,2.4000000000000004
2022-08-25T12:56:06.731Z,10.3
2022-08-25T12:57:06.725Z,5.2
2022-08-25T12:58:06.731Z,11.700000000000001
2022-08-25T12:59:06.738Z,12.3
2022-08-25T13:00:06.733Z,11
2022-08-25T13:01:07.587Z,6
2022-08-25T13:02:07.152Z,5.4
2022-08-25T13:03:07.143Z,5.6000000000000005
2022-08-25T13:04:06.890Z,9.600000000000001
2022-08-25T13:05:06.730Z,7.1000000000000005
2022-08-25T13:06:06.731Z,5.7
2022-08-25T13:07:06.744Z,12.700000000000001
2022-08-25T13:08:06.993Z,9.700000000000001
2022-08-25T13:09:08.235Z,9.3
2022-08-25T13:10:06.739Z,11.600000000000001
2022-08-25T13:11:06.744Z,13.700000000000001
2022-08-25T13:12:06.743Z,8.1
2022-08-25T13:13:06.736Z,13.4
2022-08-25T13:14:06.751Z,6.6000000000000005
2022-08-25T13:15:06.752Z,8.3
2022-08-25T13:16:06.786Z,8.5
2022-08-25T13:17:06.823Z,8.5
2022-08-25T13:18:06.892Z,6.6000000000000005
2022-08-25T13:19:06.994Z,14.3
2022-08-25T13:20:06.751Z,7.7
2022-08-25T13:21:06.752Z,4.2
2022-08-25T13:22:06.749Z,13.8
2022-08-25T13:23:06.747Z,15.8
2022-08-25T13:24:06.755Z,14.3
2022-08-25T13:25:06.768Z,9.3
2022-08-25T13:26:06.766Z,8.200000000000001
2022-08-25T13:27:06.756Z,10
2022-08-25T13:28:11.072Z,14.5
2022-08-25T13:29:09.121Z,13.4
2022-08-25T13:30:06.756Z,12.700000000000001
2022-08-25T13:31:06.763Z,5.9
2022-08-25T13:32:09.397Z,15.200000000000001
2022-08-25T13:33:08.940Z,7.300000000000001
2022-08-25T13:34:06.757Z,12.3
2022-08-25T13:35:06.761Z,16.1
2022-08-25T13:36:06.763Z,6.5
2022-08-25T13:37:06.760Z,7.1000000000000005
2022-08-25T13:38:06.928Z,12
2022-08-25T13:39:06.765Z,14.5